createdAt,value
2017-05-01T00:01:36.669Z,5.88
2017-05-01T00:04:04.122Z,5.25
2017-05-01T00:06:31.546Z,6.92
2017-05-01T00:08:58.966Z,5.88
2017-05-01T00:11:26.409Z,5.15
2017-05-01T00:13:53.822Z,6.17
2017-05-01T00:16:21.283Z,4.55
2017-05-01T00:18:48.743Z,5.12
2017-05-01T00:21:16.164Z,5.88
2017-05-01T00:23:43.586Z,5.63
2017-05-01T00:26:11.033Z,5.45
2017-05-01T00:28:38.454Z,4.83
2017-05-01T00:31:05.886Z,5.80
2017-05-01T00:33:33.335Z,5.30
2017-05-01T00:36:00.771Z,4.97
2017-05-01T00:38:28.204Z,5.65
2017-05-01T00:40:55.653Z,5.80
2017-05-01T00:43:23.088Z,5.48
2017-05-01T00:45:50.538Z,6.32
2017-05-01T00:48:17.987Z,5.62
2017-05-01T00:50:45.409Z,5.27
2017-05-01T00:53:12.857Z,5.55
2017-05-01T00:55:40.302Z,5.50
2017-05-01T00:58:07.727Z,5.57
2017-05-01T01:00:35.154Z,6.20
2017-05-01T01:03:02.594Z,6.42
2017-05-01T01:05:30.037Z,6.17
2017-05-01T01:07:58.465Z,5.60
2017-05-01T01:10:31.451Z,5.55
2017-05-01T01:12:58.882Z,7.43
2017-05-01T01:15:26.312Z,6.22
2017-05-01T01:17:53.754Z,5.98
2017-05-01T01:20:21.190Z,8.93
2017-05-01T01:22:48.610Z,6.05
2017-05-01T01:25:16.049Z,6.77
2017-05-01T01:27:43.478Z,5.82
2017-05-01T01:30:10.916Z,6.53
2017-05-01T01:32:38.406Z,7.22
2017-05-01T01:35:05.850Z,7.67
2017-05-01T01:37:33.288Z,6.38
2017-05-01T01:40:00.741Z,6.47
2017-05-01T01:42:28.170Z,6.12
2017-05-01T01:44:55.590Z,8.43
2017-05-01T01:47:23.037Z,6.15
2017-05-01T01:49:50.469Z,6.62
2017-05-01T01:52:17.901Z,6.70
2017-05-01T01:54:45.350Z,6.90
2017-05-01T01:57:12.766Z,6.28
2017-05-01T01:59:40.192Z,7.27
2017-05-01T02:02:07.671Z,6.55
2017-05-01T02:04:35.094Z,7.22
2017-05-01T02:07:02.508Z,6.90
2017-05-01T02:09:29.945Z,6.53
2017-05-01T02:11:57.370Z,5.88
2017-05-01T02:14:24.800Z,7.27
2017-05-01T02:16:52.253Z,5.95
2017-05-01T02:19:19.666Z,6.25
2017-05-01T02:21:47.095Z,6.73
2017-05-01T02:24:14.542Z,6.58
2017-05-01T02:26:41.970Z,7.88
2017-05-01T02:29:09.386Z,7.43
2017-05-01T02:31:36.843Z,8.07
2017-05-01T02:34:04.290Z,6.98
2017-05-01T02:36:31.716Z,9.97
2017-05-01T02:38:59.174Z,8.00
2017-05-01T02:41:26.602Z,9.12
2017-05-01T02:43:54.031Z,9.07
2017-05-01T02:46:21.490Z,10.37
2017-05-01T02:48:48.914Z,10.55
2017-05-01T02:51:16.338Z,10.83
2017-05-01T02:53:43.786Z,11.62
2017-05-01T02:56:11.215Z,13.17
2017-05-01T02:58:38.651Z,14.18
2017-05-01T03:01:06.117Z,13.35
2017-05-01T03:03:33.543Z,14.15
2017-05-01T03:06:00.977Z,15.10
2017-05-01T03:08:28.434Z,16.10
2017-05-01T03:10:55.857Z,16.82
2017-05-01T03:13:23.288Z,16.42
2017-05-01T03:15:50.757Z,17.52
2017-05-01T03:18:18.183Z,19.50
2017-05-01T03:20:45.617Z,19.87
2017-05-01T03:23:13.081Z,19.00
2017-05-01T03:25:40.517Z,20.57
2017-05-01T03:28:07.944Z,20.85
2017-05-01T03:30:35.402Z,19.15
2017-05-01T03:33:02.835Z,19.20
2017-05-01T03:35:30.268Z,19.68
2017-05-01T03:37:57.735Z,19.28
2017-05-01T03:40:25.173Z,20.00
2017-05-01T03:42:52.606Z,18.98
2017-05-01T03:45:20.065Z,16.87
2017-05-01T03:47:47.492Z,17.40
2017-05-01T03:50:14.925Z,14.70
2017-05-01T03:52:42.385Z,13.43
2017-05-01T03:55:09.830Z,13.38
2017-05-01T03:57:37.269Z,11.78
2017-05-01T04:00:04.726Z,12.77
2017-05-01T04:02:32.177Z,12.28
2017-05-01T04:04:59.621Z,11.43
2017-05-01T04:07:27.085Z,10.82
2017-05-01T04:09:54.530Z,11.67
2017-05-01T04:12:21.953Z,9.52
2017-05-01T04:14:49.386Z,9.48
2017-05-01T04:17:16.817Z,9.20
2017-05-01T04:19:44.249Z,9.35
2017-05-01T04:22:11.705Z,9.10
2017-05-01T04:24:39.130Z,9.15
2017-05-01T04:27:06.558Z,8.85
2017-05-01T04:29:34.011Z,8.37
2017-05-01T04:32:01.445Z,8.40
2017-05-01T04:34:28.874Z,7.53
2017-05-01T04:36:56.309Z,9.30
2017-05-01T04:39:23.742Z,10.03
2017-05-01T04:41:51.189Z,10.75
2017-05-01T04:44:18.629Z,9.60
2017-05-01T04:46:46.061Z,12.35
2017-05-01T04:49:13.481Z,9.85
2017-05-01T04:51:40.917Z,9.13
2017-05-01T04:54:08.349Z,8.97
2017-05-01T04:56:35.802Z,9.63
2017-05-01T04:59:03.244Z,8.52
2017-05-01T05:01:30.665Z,8.15
2017-05-01T05:03:58.098Z,8.43
2017-05-01T05:06:26.482Z,9.03
2017-05-01T05:08:53.904Z,9.12
2017-05-01T05:11:21.321Z,8.03
2017-05-01T05:13:48.773Z,9.12
2017-05-01T05:16:16.200Z,8.30
2017-05-01T05:18:43.621Z,8.45
2017-05-01T05:21:11.073Z,8.82
2017-05-01T05:23:38.491Z,7.67
2017-05-01T05:26:05.913Z,8.53
2017-05-01T05:28:33.365Z,8.82
2017-05-01T05:31:00.785Z,10.67
2017-05-01T05:33:28.210Z,7.95
2017-05-01T05:35:55.653Z,7.83
2017-05-01T05:38:23.092Z,8.43
2017-05-01T05:40:50.508Z,8.38
2017-05-01T05:43:17.953Z,9.22
2017-05-01T05:45:45.381Z,8.60
2017-05-01T05:48:12.802Z,8.95
2017-05-01T05:50:40.249Z,8.43
2017-05-01T05:53:07.668Z,9.00
2017-05-01T05:55:35.090Z,9.05
2017-05-01T05:58:02.535Z,9.53
2017-05-01T06:00:29.992Z,8.30
2017-05-01T06:02:57.410Z,9.23
2017-05-01T06:05:24.876Z,9.18
2017-05-01T06:07:53.257Z,9.27
2017-05-01T06:10:20.700Z,8.32
2017-05-01T06:12:48.125Z,8.65
2017-05-01T06:15:15.559Z,8.38
2017-05-01T06:17:43.011Z,8.83
2017-05-01T06:20:10.433Z,9.32
2017-05-01T06:22:37.857Z,9.13
2017-05-01T06:25:05.277Z,9.00
2017-05-01T06:27:32.699Z,8.42
2017-05-01T06:30:00.133Z,10.00
2017-05-01T06:32:27.561Z,10.35
2017-05-01T06:34:55.079Z,9.18
2017-05-01T06:37:22.509Z,9.72
2017-05-01T06:39:49.943Z,8.00
2017-05-01T06:42:17.396Z,8.13
2017-05-01T06:44:44.821Z,8.33
2017-05-01T06:47:12.237Z,8.78
2017-05-01T06:49:39.669Z,8.90
2017-05-01T06:52:07.088Z,9.27
2017-05-01T06:54:34.575Z,7.88
2017-05-01T06:57:02.077Z,9.25
2017-05-01T06:59:29.497Z,8.70
2017-05-01T07:01:56.924Z,7.48
2017-05-01T07:04:24.355Z,9.22
2017-05-01T07:06:51.782Z,7.67
2017-05-01T07:09:26.470Z,10.55
2017-05-01T07:11:53.889Z,8.08
2017-05-01T07:14:21.349Z,9.65
2017-05-01T07:16:48.773Z,7.52
2017-05-01T07:19:16.191Z,6.57
2017-05-01T07:21:43.628Z,7.32
2017-05-01T07:24:11.045Z,7.87
2017-05-01T07:26:38.465Z,8.15
2017-05-01T07:29:05.910Z,8.40
2017-05-01T07:31:33.338Z,9.65
2017-05-01T07:34:00.778Z,8.37
2017-05-01T07:36:28.214Z,7.68
2017-05-01T07:38:55.649Z,8.75
2017-05-01T07:41:23.158Z,8.40
2017-05-01T07:43:50.576Z,7.90
2017-05-01T07:46:17.994Z,9.00
2017-05-01T07:48:45.442Z,8.48
2017-05-01T07:51:12.870Z,9.10
2017-05-01T07:53:40.309Z,8.58
2017-05-01T07:56:07.758Z,8.25
2017-05-01T07:58:35.174Z,7.95
2017-05-01T08:01:02.625Z,8.02
2017-05-01T08:03:30.074Z,11.37
2017-05-01T08:05:57.493Z,8.20
2017-05-01T08:08:25.719Z,16.10
2017-05-01T08:10:54.202Z,8.17
2017-05-01T08:13:21.642Z,5.38
2017-05-01T08:15:49.077Z,6.10
2017-05-01T08:18:17.040Z,2.42
2017-05-01T08:20:44.473Z,2.58
2017-05-01T08:23:11.935Z,2.00
2017-05-01T08:25:40.370Z,8.27
2017-05-01T08:28:07.846Z,3.28
2017-05-01T08:30:35.275Z,2.25
2017-05-01T08:33:02.738Z,3.10
2017-05-01T08:35:30.202Z,7.47
2017-05-01T08:37:59.591Z,2.27
2017-05-01T08:40:27.058Z,1.97
2017-05-01T08:42:56.472Z,3.38
2017-05-01T08:45:23.916Z,3.40
2017-05-01T08:47:52.130Z,1.68
2017-05-01T08:50:19.565Z,1.88
2017-05-01T08:52:47.058Z,4.40
2017-05-01T08:55:14.534Z,5.12
2017-05-01T08:57:41.999Z,4.07
2017-05-01T09:00:12.553Z,2.78
2017-05-01T09:02:39.990Z,1.55
2017-05-01T09:05:07.514Z,4.27
2017-05-01T09:07:34.990Z,3.35
2017-05-01T09:10:04.424Z,2.63
2017-05-01T09:12:31.891Z,3.70
2017-05-01T09:14:59.326Z,2.03
2017-05-01T09:17:26.759Z,2.43
2017-05-01T09:19:54.233Z,3.10
2017-05-01T09:22:21.678Z,3.60
2017-05-01T09:24:49.112Z,3.02
2017-05-01T09:27:16.542Z,3.80
2017-05-01T09:29:43.963Z,5.03
2017-05-01T09:32:11.390Z,5.05
2017-05-01T09:34:38.826Z,6.78
2017-05-01T09:37:06.252Z,6.33
2017-05-01T09:39:33.697Z,5.48
2017-05-01T09:42:01.126Z,2.38
2017-05-01T09:44:28.568Z,1.62
2017-05-01T09:46:55.997Z,3.07
2017-05-01T09:49:23.419Z,2.48
2017-05-01T09:51:50.854Z,3.52
2017-05-01T09:54:18.282Z,3.75
2017-05-01T09:56:45.710Z,4.82
2017-05-01T09:59:13.137Z,2.52
2017-05-01T10:01:40.564Z,2.77
2017-05-01T10:04:07.998Z,2.92
2017-05-01T10:06:46.068Z,4.15
2017-05-01T10:09:13.489Z,3.70
2017-05-01T10:11:40.954Z,9.12
2017-05-01T10:14:09.399Z,4.42
2017-05-01T10:16:36.846Z,3.00
2017-05-01T10:19:04.727Z,4.60
2017-05-01T10:21:32.195Z,2.75
2017-05-01T10:23:59.613Z,2.03
2017-05-01T10:26:27.041Z,2.63
2017-05-01T10:28:54.469Z,2.67
2017-05-01T10:31:21.909Z,1.98
2017-05-01T10:34:09.542Z,2.37
2017-05-01T10:36:36.982Z,2.17
2017-05-01T10:39:04.426Z,4.05
2017-05-01T10:41:31.853Z,2.30
2017-05-01T10:43:59.287Z,4.70
2017-05-01T10:46:26.724Z,3.92
2017-05-01T10:48:54.159Z,9.47
2017-05-01T10:51:21.590Z,2.48
2017-05-01T10:53:49.010Z,3.15
2017-05-01T10:56:16.437Z,4.33
2017-05-01T10:58:43.868Z,1.78
2017-05-01T11:01:11.293Z,3.35
2017-05-01T11:03:38.721Z,2.10
2017-05-01T11:06:06.155Z,3.38
2017-05-01T11:08:33.586Z,2.45
2017-05-01T11:11:01.021Z,3.65
2017-05-01T11:13:28.453Z,2.23
2017-05-01T11:15:55.882Z,2.13
2017-05-01T11:18:23.311Z,2.57
2017-05-01T11:20:50.734Z,2.88
2017-05-01T11:23:18.170Z,5.68
2017-05-01T11:25:45.601Z,3.92
2017-05-01T11:28:13.025Z,6.10
2017-05-01T11:30:40.457Z,3.68
2017-05-01T11:33:07.882Z,3.18
2017-05-01T11:35:35.327Z,1.87
2017-05-01T11:38:02.781Z,2.83
2017-05-01T11:40:30.236Z,3.65
2017-05-01T11:42:57.657Z,2.08
2017-05-01T11:45:25.078Z,1.80
2017-05-01T11:47:52.507Z,2.78
2017-05-01T11:50:19.933Z,2.00
2017-05-01T11:52:47.358Z,7.85
2017-05-01T11:55:14.785Z,3.23
2017-05-01T11:57:42.223Z,5.10
2017-05-01T12:00:09.650Z,1.43
2017-05-01T12:02:42.930Z,2.07
2017-05-01T12:05:10.354Z,1.92
2017-05-01T12:07:37.818Z,1.45
2017-05-01T12:10:05.330Z,2.23
2017-05-01T12:12:36.054Z,1.80
2017-05-01T12:15:03.573Z,2.15
2017-05-01T12:17:31.098Z,1.92
2017-05-01T12:19:58.586Z,1.90
2017-05-01T12:22:30.150Z,2.35
2017-05-01T12:24:58.502Z,3.57
2017-05-01T12:27:25.942Z,1.20
2017-05-01T12:29:53.387Z,5.20
2017-05-01T12:32:20.862Z,2.45
2017-05-01T12:34:48.302Z,2.15
2017-05-01T12:37:15.733Z,2.73
2017-05-01T12:39:43.186Z,1.35
2017-05-01T12:42:22.063Z,2.67
2017-05-01T12:44:49.494Z,1.50
2017-05-01T12:47:17.010Z,2.90
2017-05-01T12:49:44.460Z,2.33
2017-05-01T12:52:11.915Z,1.48
2017-05-01T12:54:48.694Z,3.78
2017-05-01T12:57:16.190Z,2.95
2017-05-01T12:59:43.987Z,1.90
2017-05-01T13:02:12.447Z,2.65
2017-05-01T13:04:43.127Z,1.88
2017-05-01T13:07:10.554Z,2.73
2017-05-01T13:09:37.995Z,2.58
2017-05-01T13:12:05.446Z,1.40
2017-05-01T13:14:33.878Z,2.00
2017-05-01T13:17:01.326Z,1.92
2017-05-01T13:19:28.768Z,3.07
2017-05-01T13:21:56.205Z,2.37
2017-05-01T13:24:23.639Z,2.42
2017-05-01T13:26:51.075Z,3.33
2017-05-01T13:29:18.506Z,2.40
2017-05-01T13:31:45.996Z,2.23
2017-05-01T13:34:13.455Z,4.95
2017-05-01T13:36:40.890Z,1.88
2017-05-01T13:39:11.918Z,3.12
2017-05-01T13:41:39.351Z,3.52
2017-05-01T13:44:06.779Z,1.80
2017-05-01T13:46:34.223Z,2.40
2017-05-01T13:49:01.654Z,2.83
2017-05-01T13:51:29.090Z,5.63
2017-05-01T13:53:56.526Z,2.42
2017-05-01T13:56:23.954Z,3.33
2017-05-01T13:58:52.298Z,2.18
2017-05-01T14:01:19.735Z,2.15
2017-05-01T14:03:48.140Z,2.17
2017-05-01T14:06:15.571Z,2.67
2017-05-01T14:08:43.002Z,2.08
2017-05-01T14:11:10.434Z,2.77
2017-05-01T14:13:37.882Z,2.18
2017-05-01T14:16:05.334Z,3.53
2017-05-01T14:18:32.765Z,3.22
2017-05-01T14:21:01.202Z,5.05
2017-05-01T14:23:28.652Z,3.50
2017-05-01T14:25:56.103Z,1.67
2017-05-01T14:28:23.562Z,1.50
2017-05-01T14:30:51.015Z,1.68
2017-05-01T14:33:18.470Z,1.80
2017-05-01T14:35:45.917Z,1.87
2017-05-01T14:38:13.375Z,2.18
2017-05-01T14:40:40.814Z,1.98
2017-05-01T14:43:08.237Z,3.45
2017-05-01T14:45:35.670Z,2.97
2017-05-01T14:48:03.102Z,4.43
2017-05-01T14:50:30.522Z,1.78
2017-05-01T14:52:57.946Z,1.73
2017-05-01T14:55:25.379Z,2.28
2017-05-01T14:57:53.969Z,2.18
2017-05-01T15:00:21.400Z,2.80
2017-05-01T15:02:48.843Z,2.05
2017-05-01T15:05:16.278Z,4.20
2017-05-01T15:13:40.322Z,2.82
2017-05-01T15:16:07.854Z,3.27
2017-05-01T15:18:35.412Z,3.00
2017-05-01T15:21:02.862Z,6.62
2017-05-01T15:23:30.299Z,2.70
2017-05-01T15:25:57.740Z,4.15
2017-05-01T15:28:25.187Z,4.25
2017-05-01T15:30:52.623Z,2.35
2017-05-01T15:33:21.521Z,3.83
2017-05-01T15:35:48.979Z,4.08
2017-05-01T15:38:16.520Z,3.42
2017-05-01T15:40:53.942Z,3.48
2017-05-01T15:43:21.382Z,3.62
2017-05-01T15:45:50.067Z,5.10
2017-05-01T15:48:17.502Z,8.30
2017-05-01T15:50:44.954Z,4.60
2017-05-01T15:53:20.274Z,4.52
2017-05-01T15:55:47.834Z,4.32
2017-05-01T15:58:15.266Z,5.20
2017-05-01T16:00:42.771Z,4.20
2017-05-01T16:03:10.234Z,4.07
2017-05-01T16:05:37.684Z,2.65
2017-05-01T16:08:05.151Z,3.93
2017-05-01T16:10:37.568Z,3.92
2017-05-01T16:13:05.014Z,4.85
2017-05-01T16:15:32.447Z,5.73
2017-05-01T16:18:00.978Z,6.48
2017-05-01T16:20:28.478Z,7.68
2017-05-01T16:22:55.916Z,7.03
2017-05-01T16:25:23.426Z,4.67
2017-05-01T16:27:51.067Z,4.83
2017-05-01T16:30:18.653Z,5.37
2017-05-01T16:32:46.474Z,4.60
2017-05-01T16:35:13.942Z,4.72
2017-05-01T16:37:41.376Z,5.53
2017-05-01T16:40:08.806Z,4.92
2017-05-01T16:42:37.183Z,5.50
2017-05-01T16:45:04.606Z,6.05
2017-05-01T16:47:32.034Z,7.62
2017-05-01T16:49:59.469Z,4.00
2017-05-01T16:52:26.898Z,6.58
2017-05-01T16:54:54.321Z,4.53
2017-05-01T16:57:21.742Z,6.45
2017-05-01T16:59:49.171Z,5.00
2017-05-01T17:02:16.599Z,4.62
2017-05-01T17:04:44.030Z,4.40
2017-05-01T17:07:16.476Z,5.15
2017-05-01T17:09:43.917Z,4.32
2017-05-01T17:12:11.342Z,4.12
2017-05-01T17:14:38.769Z,4.65
2017-05-01T17:17:06.199Z,4.77
2017-05-01T17:19:33.617Z,5.98
2017-05-01T17:22:01.049Z,5.02
2017-05-01T17:24:28.499Z,5.50
2017-05-01T17:26:55.945Z,5.03
2017-05-01T17:29:23.375Z,5.80
2017-05-01T17:31:50.807Z,5.00
2017-05-01T17:34:18.239Z,4.37
2017-05-01T17:36:45.687Z,5.42
2017-05-01T17:39:13.110Z,5.37
2017-05-01T17:41:40.541Z,5.20
2017-05-01T17:44:07.973Z,4.73
2017-05-01T17:46:35.406Z,5.53
2017-05-01T17:49:02.838Z,4.33
2017-05-01T17:51:30.306Z,5.03
2017-05-01T17:53:57.758Z,4.12
2017-05-01T17:56:25.193Z,5.80
2017-05-01T17:58:52.617Z,6.85
2017-05-01T18:01:20.101Z,7.43
2017-05-01T18:03:47.535Z,7.70
2017-05-01T18:06:14.965Z,5.22
2017-05-01T18:08:42.391Z,5.12
2017-05-01T18:11:09.824Z,4.42
2017-05-01T18:13:37.251Z,5.88
2017-05-01T18:16:04.678Z,6.30
2017-05-01T18:18:32.134Z,4.35
2017-05-01T18:20:59.571Z,4.72
2017-05-01T18:23:26.996Z,5.13
2017-05-01T18:25:54.446Z,5.18
2017-05-01T18:28:21.875Z,5.78
2017-05-01T18:30:49.313Z,5.20
2017-05-01T18:33:18.730Z,6.15
2017-05-01T18:35:46.161Z,5.60
2017-05-01T18:38:13.590Z,5.80
2017-05-01T18:40:41.038Z,6.00
2017-05-01T18:43:08.461Z,5.33
2017-05-01T18:45:35.884Z,6.35
2017-05-01T18:48:03.414Z,6.67
2017-05-01T18:50:30.849Z,6.43
2017-05-01T18:52:58.274Z,6.00
2017-05-01T18:55:25.725Z,7.42
2017-05-01T18:57:53.163Z,6.62
2017-05-01T19:00:20.595Z,6.42
2017-05-01T19:02:48.039Z,6.37
2017-05-01T19:05:15.506Z,6.57
2017-05-01T19:07:42.942Z,7.02
2017-05-01T19:10:10.408Z,7.75
2017-05-01T19:12:37.849Z,7.27
2017-05-01T19:15:05.348Z,8.52
2017-05-01T19:17:32.794Z,7.52
2017-05-01T19:20:00.221Z,8.08
2017-05-01T19:22:27.654Z,7.03
2017-05-01T19:24:55.102Z,7.97
2017-05-01T19:27:22.538Z,8.05
2017-05-01T19:29:49.957Z,8.10
2017-05-01T19:32:17.411Z,8.52
2017-05-01T19:34:44.830Z,8.47
2017-05-01T19:37:12.253Z,8.35
2017-05-01T19:39:39.707Z,8.90
2017-05-01T19:42:07.139Z,9.08
2017-05-01T19:44:34.558Z,9.58
2017-05-01T19:47:02.002Z,9.10
2017-05-01T19:49:29.425Z,9.47
2017-05-01T19:51:56.962Z,11.28
2017-05-01T19:54:24.412Z,13.00
2017-05-01T19:56:51.857Z,10.67
2017-05-01T19:59:19.297Z,11.45
2017-05-01T20:01:46.746Z,10.45
2017-05-01T20:04:14.182Z,12.60
2017-05-01T20:06:41.625Z,12.50
2017-05-01T20:09:09.074Z,12.93
2017-05-01T20:11:36.642Z,13.65
2017-05-01T20:14:04.084Z,14.08
2017-05-01T20:16:31.537Z,12.07
2017-05-01T20:18:58.981Z,12.12
2017-05-01T20:21:27.266Z,12.22
2017-05-01T20:23:54.774Z,13.73
2017-05-01T20:26:23.190Z,13.47
2017-05-01T20:28:50.635Z,13.75
2017-05-01T20:31:18.091Z,13.68
2017-05-01T20:33:45.523Z,15.72
2017-05-01T20:36:12.962Z,13.27
2017-05-01T20:38:40.410Z,13.37
2017-05-01T20:41:08.869Z,12.83
2017-05-01T20:43:36.307Z,13.85
2017-05-01T20:46:03.773Z,14.32
2017-05-01T20:48:31.226Z,14.72
2017-05-01T20:50:58.668Z,14.83
2017-05-01T20:53:26.131Z,14.60
2017-05-01T20:55:57.791Z,14.00
2017-05-01T20:58:25.248Z,13.43
2017-05-01T21:00:52.718Z,16.98
2017-05-01T21:03:20.153Z,15.63
2017-05-01T21:05:50.801Z,14.83
2017-05-01T21:08:18.261Z,12.23
2017-05-01T21:10:45.698Z,14.73
2017-05-01T21:13:13.131Z,15.90
2017-05-01T21:15:40.594Z,14.38
2017-05-01T21:18:08.035Z,16.33
2017-05-01T21:20:35.476Z,18.53
2017-05-01T21:23:02.935Z,18.63
2017-05-01T21:25:30.369Z,15.70
2017-05-01T21:27:57.809Z,14.98
2017-05-01T21:30:25.272Z,14.52
2017-05-01T21:32:52.710Z,16.67
2017-05-01T21:35:22.127Z,16.57
2017-05-01T21:37:49.597Z,17.42
2017-05-01T21:40:17.042Z,16.23
2017-05-01T21:42:44.486Z,15.78
2017-05-01T21:45:11.950Z,18.78
2017-05-01T21:47:39.390Z,16.53
2017-05-01T21:50:06.821Z,18.42
2017-05-01T21:52:34.298Z,19.38
2017-05-01T21:55:01.746Z,18.53
2017-05-01T21:57:36.815Z,17.13
2017-05-01T22:00:04.247Z,17.57
2017-05-01T22:02:31.683Z,19.50
2017-05-01T22:04:59.147Z,18.83
2017-05-01T22:07:26.585Z,18.13
2017-05-01T22:09:54.024Z,18.80
2017-05-01T22:12:21.493Z,20.47
2017-05-01T22:14:48.919Z,17.75
2017-05-01T22:17:16.358Z,18.25
2017-05-01T22:19:43.818Z,17.43
2017-05-01T22:22:11.254Z,18.30
2017-05-01T22:24:38.703Z,21.52
2017-05-01T22:27:06.167Z,18.02
2017-05-01T22:29:33.626Z,18.68
2017-05-01T22:32:01.053Z,20.83
2017-05-01T22:34:28.526Z,21.83
2017-05-01T22:36:55.958Z,19.87
2017-05-01T22:39:23.395Z,25.02
2017-05-01T22:41:50.882Z,22.52
2017-05-01T22:44:18.311Z,20.67
2017-05-01T22:46:45.750Z,23.35
2017-05-01T22:49:13.197Z,23.88
2017-05-01T22:51:40.630Z,20.35
2017-05-01T22:54:08.059Z,22.32
2017-05-01T22:56:35.522Z,21.45
2017-05-01T22:59:02.956Z,20.15
2017-05-01T23:01:30.393Z,22.40
2017-05-01T23:03:57.843Z,22.10
2017-05-01T23:06:25.279Z,21.88
2017-05-01T23:08:52.709Z,20.50
2017-05-01T23:11:20.165Z,18.62
2017-05-01T23:13:47.606Z,21.78
2017-05-01T23:16:15.042Z,23.18
2017-05-01T23:18:42.497Z,21.67
2017-05-01T23:21:09.929Z,23.65
2017-05-01T23:23:37.365Z,22.47
2017-05-01T23:26:04.834Z,20.87
2017-05-01T23:28:32.294Z,23.15
2017-05-01T23:30:59.737Z,24.33
2017-05-01T23:33:27.191Z,22.13
2017-05-01T23:35:54.626Z,21.38
2017-05-01T23:38:22.062Z,24.47
2017-05-01T23:40:49.534Z,21.38
2017-05-01T23:43:16.973Z,21.28
2017-05-01T23:45:44.411Z,22.87
2017-05-01T23:48:11.862Z,24.45
2017-05-01T23:50:39.303Z,21.43
2017-05-01T23:53:06.742Z,18.93
2017-05-01T23:55:34.197Z,23.93
2017-05-01T23:58:01.639Z,18.98
